Main page
METAR-TAF:

METAR-TAF

Airports :

Kuwait International Airport

Kuwait City, Kuwait

latitude: 29-13N, longitude: 047-59E, elevation: 55 m

Current weather observation

The report was made 1 hour and 11 minutes ago, at 20:00 UTC
Calm wind
Temperature 21°C
Humidity 49%
Pressure 1013 hPa
Visibility 10 km or more
no clouds below 1500 m and no cumulonimbus

METAR: OKBK 112000Z 00000KT CAVOK 21/10 Q1013 NOSIG

Time: 00:11 (21:11 UTC)

Forecast

The report was made 4 hours and 26 minutes ago, at 16:45 UTC
Forecast valid from 11 at 18 UTC to 12 at 24 UTC
Wind 15 kt from the North/Northwest
Visibility: 7000 m
Few clouds at a height of 3000 ft
Broken clouds at a height of 10000 ft

TAF: OKBK 111645Z 1118/1224 34015KT 7000 FEW030 BKN100

Weather observations and forecasts of more than 4000 airports (METAR and TAF reports).

The available stations are represented by yellow and red dots on the map.

Hover mouse over dot to see the name of the station.

Then click to see weather observations and forecasts.

To change the map : click on the green buttons with a black cross to zoom in, on the green button with a dash to zoom out, or on the green arrows for adjacent maps.


METAR-TAF: